Latest Weather Observations for Cowra

IDN60801

Issued at 10:05 pm EDT Saturday 31 January 2015 (issued every 30 minutes, with the page automatically refreshed every 10 minutes)

About weather observations | Map of weather stations | Latest weather observations for NSW | Other Formats
Station Details ID: 065111 Name: COWRA AIRPORT AWS Lat: -33.84 Lon: 148.65 Height: 296.5 m
Data from the previous 72 hours. | See also: Recent months at Cowra
Date/Time
EDT
Temp
°C
App
Temp
°C
Dew
Point
Rel
Hum
%
Delta-T
°C
Wind Press
QNH
hPa
Press
MSL
hPa
Rain
since 9 am
mm
Dir
 
Spd
km/h
Gust
km/h
Spd
kts
Gust
kts
31/10:00pm 20.5 18.7 7.2 42 6.9 SW 6 9 3 5 1008.7 - 0.0
31/09:30pm 20.5 19.9 7.2 42 6.9 CALM 0 0 0 0 1008.5 - 0.0
31/09:00pm 22.2 20.2 7.2 38 7.9 SW 7 9 4 5 1008.2 1006.9 0.0
31/08:30pm 22.7 19.9 6.9 36 8.3 SW 11 13 6 7 1007.9 - 0.0
31/08:00pm 24.6 20.5 6.4 31 9.5 SSW 17 22 9 12 1007.5 - 0.0
31/07:30pm 26.1 21.6 6.2 28 10.5 SW 19 26 10 14 1007.1 - 0.0
31/07:00pm 26.6 21.5 6.1 27 10.8 SW 22 28 12 15 1006.9 - 0.0
31/06:30pm 25.9 21.2 6.0 28 10.4 WSW 20 28 11 15 1006.6 - 0.0
31/06:00pm 27.3 23.7 6.7 27 11.0 WSW 15 26 8 14 1006.5 1005.0 0.0
31/05:30pm 26.7 21.8 5.1 25 11.2 SSW 20 35 11 19 1006.7 - 0.0
31/05:00pm 27.3 22.7 6.7 27 11.0 W 20 32 11 17 1006.7 - 0.0
31/04:30pm 27.2 22.0 5.5 25 11.4 SW 22 33 12 18 1006.8 - 0.0
31/04:00pm 27.5 22.9 5.7 25 11.5 SSW 19 44 10 24 1006.7 - 0.0
31/03:30pm 26.3 21.6 5.3 26 10.9 SSW 19 33 10 18 1007.0 - 0.0
31/03:00pm 26.4 22.1 5.4 26 10.9 SW 17 35 9 19 1007.1 1005.8 0.0
31/02:30pm 27.0 24.0 7.5 29 10.5 W 13 33 7 18 1007.1 - 0.0
31/02:00pm 25.7 21.8 7.3 31 9.8 W 17 32 9 17 1007.2 - 0.0
31/01:30pm 24.7 20.4 6.9 32 9.4 SW 19 32 10 17 1007.4 - 0.0
31/01:00pm 24.7 20.6 7.8 34 9.1 WSW 19 32 10 17 1007.7 - 0.0
31/12:30pm 25.0 21.9 8.9 36 8.8 WSW 15 28 8 15 1008.2 - 0.0
31/12:00pm 24.0 20.3 8.0 36 8.6 W 17 28 9 15 1008.6 1007.2 0.0
31/11:30am 23.1 19.2 7.2 36 8.4 WSW 17 28 9 15 1009.0 - 0.0
31/11:00am 22.7 18.9 7.7 38 7.9 SW 17 28 9 15 1009.1 - 0.0
31/10:30am 21.4 19.4 8.7 44 6.8 SW 9 15 5 8 1009.2 - 0.0
31/10:00am 19.9 18.4 8.6 48 6.0 WNW 6 9 3 5 1009.4 - 0.0
31/09:30am 19.1 18.1 9.0 52 5.4 NE 4 7 2 4 1009.5 - 0.0
31/09:00am 17.4 17.0 8.3 55 4.7 CALM 0 0 0 0 1009.5 1008.1 0.0
31/08:30am 15.6 15.1 7.9 60 3.9 CALM 0 0 0 0 1009.5 - 0.0
31/08:00am 13.4 12.9 8.0 70 2.7 CALM 0 0 0 0 1009.4 - 0.0
31/07:30am 11.5 11.2 8.5 82 1.5 CALM 0 0 0 0 1009.2 - 0.0
31/07:00am 9.1 8.2 6.0 81 1.4 CALM 0 0 0 0 1009.0 - 0.0
31/06:30am 10.1 9.3 6.6 79 1.7 CALM 0 6 0 3 1008.4 - 0.0
31/06:00am 10.4 8.4 6.9 79 1.7 E 7 9 4 5 1008.1 1006.8 0.0
31/05:30am 10.8 9.1 7.5 80 1.6 SSE 6 7 3 4 1007.9 - 0.0
31/05:00am 10.5 9.9 7.6 82 1.4 CALM 0 0 0 0 1007.8 - 0.0
31/04:30am 10.4 8.5 6.5 77 1.9 E 6 7 3 4 1007.6 - 0.0
31/04:00am 12.2 10.3 6.9 70 2.6 ESE 6 9 3 5 1007.6 - 0.0
31/03:30am 13.3 12.8 7.7 69 2.8 CALM 0 0 0 0 1007.7 - 0.0
31/03:00am 13.7 12.8 7.9 68 2.9 SW 2 6 1 3 1007.9 1006.6 0.0
31/02:30am 14.0 12.4 8.0 67 3.0 S 6 7 3 4 1007.8 - 0.0
31/02:00am 12.9 12.4 7.8 71 2.5 CALM 0 0 0 0 1008.0 - 0.0
31/01:30am 13.4 12.5 6.0 61 3.6 CALM 0 0 0 0 1008.1 - 0.0
31/01:00am 13.9 12.9 5.8 58 3.9 CALM 0 0 0 0 1008.3 - 0.0
31/12:30am 14.9 14.0 6.2 56 4.3 CALM 0 0 0 0 1008.4 - 0.0
31/12:00am 16.3 15.3 5.6 49 5.2 CALM 0 0 0 0 1008.4 1007.1 0.0
 
Date/Time
EDT
Temp
°C
App
Temp
°C
Dew
Point
Rel
Hum
%
Delta-T
°C
Wind Press
QNH
hPa
Press
MSL
hPa
Rain
since 9 am
mm
Dir
 
Spd
km/h
Gust
km/h
Spd
kts
Gust
kts
30/11:30pm 16.1 15.1 5.7 50 5.1 CALM 0 0 0 0 1008.4 - 0.0
30/11:00pm 16.3 14.9 5.3 48 5.3 SSW 2 6 1 3 1008.5 - 0.0
30/10:30pm 17.7 15.0 5.6 45 6.0 SW 9 11 5 6 1008.6 - 0.0
30/10:00pm 18.8 16.4 5.3 41 6.7 SW 7 9 4 5 1008.4 - 0.0
30/09:30pm 18.3 15.6 5.5 43 6.3 WSW 9 11 5 6 1008.3 - 0.0
30/09:00pm 19.6 16.4 4.9 38 7.3 WSW 11 11 6 6 1008.0 1006.7 0.0
30/08:30pm 20.5 16.7 4.1 34 8.0 SW 13 15 7 8 1007.8 - 0.0
30/08:00pm 22.5 18.3 3.6 29 9.3 SW 15 20 8 11 1007.5 - 0.0
30/07:30pm 23.7 18.4 3.1 26 10.1 SW 20 26 11 14 1007.1 - 0.0
30/07:00pm 24.4 18.4 1.3 22 11.0 SW 22 32 12 17 1006.9 - 0.0
30/06:30pm 25.1 19.1 1.3 21 11.4 SW 22 33 12 18 1006.7 - 0.0
30/06:00pm 25.4 18.9 0.1 19 11.9 SW 24 33 13 18 1006.8 1005.4 0.0
30/05:30pm 25.5 21.0 2.2 22 11.4 SW 15 20 8 11 1006.8 - 0.0
30/05:00pm 25.8 20.4 2.5 22 11.5 SSW 20 35 11 19 1007.0 - 0.0
30/04:30pm 25.3 19.0 1.4 21 11.5 WSW 24 35 13 19 1007.1 - 0.0
30/04:00pm 25.6 19.7 1.7 21 11.6 WSW 22 33 12 18 1007.4 - 0.0
30/03:30pm 25.4 19.6 2.2 22 11.3 SSW 22 35 12 19 1007.7 - 0.0
30/03:00pm 25.1 18.2 2.5 23 11.1 SSW 28 37 15 20 1008.2 1006.9 0.0
30/02:30pm 24.8 19.2 3.5 25 10.6 SW 22 35 12 19 1008.5 - 0.0
30/02:00pm 23.8 18.9 4.2 28 9.8 WSW 19 32 10 17 1009.0 - 0.0
30/01:30pm 23.7 18.7 4.6 29 9.6 SSW 20 28 11 15 1009.4 - 0.0
30/01:00pm 22.8 19.0 5.7 33 8.7 WSW 15 32 8 17 1009.7 - 0.0
30/12:30pm 23.3 18.0 4.8 30 9.3 SW 22 35 12 19 1010.0 - 0.0
30/12:00pm 21.4 17.7 6.1 37 7.8 SSW 15 28 8 15 1010.4 1009.0 0.0
30/11:30am 20.7 17.3 5.9 38 7.5 SSW 13 22 7 12 1010.8 - 0.0
30/11:00am 20.1 17.5 6.1 40 7.1 S 9 17 5 9 1011.1 - 0.0
30/10:30am 19.0 16.2 5.1 40 6.8 SE 9 15 5 8 1011.4 - 0.0
30/10:00am 18.7 16.5 6.2 44 6.3 E 7 13 4 7 1011.6 - 0.0
30/09:30am 17.8 15.5 5.7 45 6.0 ESE 7 13 4 7 1011.7 - 0.0
30/09:05am - - - - - - - - - - - - -
30/09:00am 16.8 13.3 5.4 47 5.6 ESE 13 19 7 10 1011.9 1010.6 0.0
30/08:30am 16.3 13.3 6.2 51 5.0 SE 11 17 6 9 1012.0 - 0.0
30/08:00am 15.0 12.7 7.3 60 3.9 SE 9 11 5 6 1011.9 - 0.0
30/07:30am 13.3 10.5 7.1 66 3.1 SSE 11 15 6 8 1011.5 - 0.0
30/07:00am 11.7 8.9 7.0 73 2.3 SSE 11 15 6 8 1011.3 - 0.0
30/06:30am 11.9 9.8 6.8 71 2.5 SSE 7 9 4 5 1010.9 - 0.0
30/06:00am 11.6 9.8 7.1 74 2.2 S 6 6 3 3 1010.7 1009.4 0.0
30/05:30am 11.3 9.5 7.2 76 2.0 SSW 6 7 3 4 1010.6 - 0.0
30/05:00am 11.1 8.8 7.4 78 1.8 S 9 11 5 6 1010.6 - 0.0
30/04:30am 11.2 9.0 7.7 79 1.7 S 9 11 5 6 1010.5 - 0.0
30/04:00am 12.0 10.1 7.7 75 2.1 S 7 7 4 4 1010.6 - 0.0
30/03:30am 13.0 11.4 7.9 71 2.6 SSE 6 7 3 4 1010.8 - 0.0
30/03:00am 12.8 11.0 8.1 73 2.4 S 7 9 4 5 1011.1 1009.8 0.0
30/02:30am 13.2 11.1 8.1 71 2.6 S 9 9 5 5 1011.3 - 0.0
30/02:00am 13.7 11.1 7.9 68 2.9 S 11 15 6 8 1011.4 - 0.0
30/01:30am 14.6 12.0 7.9 64 3.4 S 11 13 6 7 1011.5 - 0.0
30/01:00am 16.1 13.1 7.6 57 4.3 SSE 13 17 7 9 1011.6 - 0.0
30/12:30am 17.1 13.7 7.5 53 4.9 SE 15 20 8 11 1011.7 - 0.0
30/12:00am 17.0 14.0 7.6 54 4.8 SE 13 17 7 9 1011.8 1010.5 0.0
 
Date/Time
EDT
Temp
°C
App
Temp
°C
Dew
Point
Rel
Hum
%
Delta-T
°C
Wind Press
QNH
hPa
Press
MSL
hPa
Rain
since 9 am
mm
Dir
 
Spd
km/h
Gust
km/h
Spd
kts
Gust
kts
29/11:30pm 18.0 14.6 7.7 51 5.3 SE 15 22 8 12 1011.8 - 0.0
29/11:00pm 18.9 14.8 7.7 48 5.8 SSE 19 26 10 14 1011.8 - 0.0
29/10:30pm 18.4 16.0 7.2 48 5.7 SSE 9 11 5 6 1011.6 - 0.0
29/10:00pm 18.5 16.7 7.3 48 5.7 SSE 6 9 3 5 1011.4 - 0.0
29/09:30pm 16.6 15.4 8.1 57 4.4 SE 4 7 2 4 1011.2 - 0.0
29/09:00pm 20.0 17.9 6.0 40 7.1 E 6 7 3 4 1010.9 1009.6 0.0
29/08:30pm 20.8 18.3 4.8 35 7.9 E 7 9 4 5 1010.9 - 0.0
29/08:00pm 21.9 19.0 4.5 32 8.6 E 9 13 5 7 1010.6 - 0.0
29/07:30pm 23.8 20.3 3.7 27 10.0 SSE 11 19 6 10 1010.5 - 0.0
29/07:00pm 24.2 19.6 3.5 26 10.3 S 17 22 9 12 1010.4 - 0.0
29/06:30pm 24.2 20.7 3.5 26 10.3 SSE 11 20 6 11 1010.3 - 0.0
29/06:00pm 24.3 20.8 3.6 26 10.3 SSE 11 17 6 9 1010.3 1008.9 0.0
29/05:30pm 24.9 20.6 3.5 25 10.6 SE 15 22 8 12 1010.5 - 0.0
29/05:00pm 24.8 19.9 4.0 26 10.4 S 19 24 10 13 1010.8 - 0.0
29/04:30pm 24.0 18.9 2.8 25 10.4 SSE 19 28 10 15 1011.2 - 0.0
29/04:00pm 24.4 19.4 3.7 26 10.3 SSE 19 30 10 16 1011.3 - 0.0
29/03:30pm 24.2 18.5 2.9 25 10.4 S 22 30 12 16 1011.7 - 0.0
29/03:00pm 24.2 19.3 4.0 27 10.1 SSE 19 28 10 15 1012.0 1010.8 0.0
29/02:30pm 23.1 18.2 4.1 29 9.4 S 19 32 10 17 1012.5 - 0.0
29/02:00pm 23.6 18.7 5.0 30 9.4 S 20 33 11 18 1012.9 - 0.0
29/01:30pm 23.3 18.6 6.1 33 8.9 S 20 35 11 19 1013.2 - 0.0
29/01:00pm 22.5 17.2 5.0 32 8.8 S 22 33 12 18 1013.6 - 0.0
29/12:30pm 21.8 17.5 5.3 34 8.3 S 17 28 9 15 1013.9 - 0.0
29/12:00pm 20.6 17.0 5.0 36 7.8 SSE 13 24 7 13 1014.5 1013.2 0.0
29/11:30am 20.1 15.7 4.6 36 7.6 SSE 17 28 9 15 1014.8 - 0.0
29/11:00am 19.8 14.5 5.1 38 7.3 SSE 22 28 12 15 1015.0 - 0.0
29/10:30am 19.0 15.8 6.8 45 6.2 SE 13 19 7 10 1015.3 - 0.0
29/10:00am 17.4 12.7 6.0 47 5.7 SE 20 30 11 16 1015.4 - 0.0
29/09:30am 17.0 12.5 6.2 49 5.4 SE 19 30 10 16 1015.2 - 0.0
29/09:00am 16.8 12.1 6.0 49 5.3 SE 20 32 11 17 1015.2 1013.9 0.2
29/08:30am 16.6 12.1 6.1 50 5.2 SE 19 32 10 17 1015.0 - 0.2
29/08:00am 15.5 12.7 6.8 56 4.3 SE 11 17 6 9 1015.0 - 0.2
29/07:30am 15.4 13.2 7.7 60 3.9 SE 9 13 5 7 1014.8 - 0.2
29/07:00am 14.0 12.2 7.8 66 3.1 SE 7 11 4 6 1014.5 - 0.2
29/06:30am 13.7 11.5 7.9 68 2.9 SSE 9 11 5 6 1014.3 - 0.2
29/06:00am 13.9 13.7 8.9 72 2.6 CALM 0 0 0 0 1014.1 1012.8 0.2
29/05:30am 13.6 12.3 9.1 74 2.3 S 6 7 3 4 1014.0 - 0.2
29/05:00am 14.4 12.6 9.4 72 2.6 SSE 9 13 5 7 1013.8 - 0.2
29/04:30am 14.1 12.8 9.1 72 2.6 SE 6 9 3 5 1013.6 - 0.2
29/04:00am 13.2 11.9 9.1 76 2.1 SSE 6 9 3 5 1013.8 - 0.2
29/03:30am 12.7 11.6 9.9 83 1.5 SSW 6 7 3 4 1013.7 - 0.2
29/03:00am 13.0 11.2 9.3 78 1.9 SSE 9 11 5 6 1013.8 1012.6 0.2
29/02:30am 13.0 12.1 9.1 77 2.0 S 4 9 2 5 1013.9 - 0.2
29/02:00am 13.0 12.7 8.5 74 2.3 CALM 0 0 0 0 1014.3 - 0.2
29/01:30am 15.2 13.2 8.7 65 3.4 SE 9 13 5 7 1014.4 - 0.2
29/01:00am 15.6 13.6 8.6 63 3.6 SE 9 13 5 7 1014.4 - 0.2
29/12:30am 16.0 14.0 8.7 62 3.8 SE 9 11 5 6 1014.7 - 0.2
29/12:00am 16.2 14.1 8.4 60 4.0 SE 9 15 5 8 1014.8 1013.5 0.2
 
Date/Time
EDT
Temp
°C
App
Temp
°C
Dew
Point
Rel
Hum
%
Delta-T
°C
Wind Press
QNH
hPa
Press
MSL
hPa
Rain
since 9 am
mm
Dir
 
Spd
km/h
Gust
km/h
Spd
kts
Gust
kts
28/11:30pm 16.6 14.1 8.3 58 4.3 SE 11 17 6 9 1014.5 - 0.2
28/11:00pm 17.2 13.9 8.1 55 4.7 ESE 15 20 8 11 1014.7 - 0.2
28/10:30pm 18.0 13.9 8.0 52 5.2 SE 19 30 10 16 1014.8 - 0.2

Other Formats:

Comma delimited format used in spreadsheet applications
http://www.bom.gov.au/fwo/IDN60801/IDN60801.95721.axf

JavaScript Object Notation format (JSON) in row-major order
http://www.bom.gov.au/fwo/IDN60801/IDN60801.95721.json